Time;durP1;ratioP1;P1;durP2;ratioP2;P2;SDS_P1;SDS_P2;PMS_P1;PMS_P2;Temp;Humidity;BMP_temperature;BMP_pressure;BME280_temperature;BME280_humidity;BME280_pressure;Samples;Min_cycle;Max_cycle;Signal;HPM_P1;HPM_P2
2022/02/24 00:04:24;;;;;;;4.80;1.17;;;6.60;99.90;;;;;;12530566;28;20552;-36
2022/02/24 00:10:26;;;;;;;7.10;1.38;;;6.70;99.90;;;;;;12531057;28;20405;-39
2022/02/24 00:16:28;;;;;;;4.03;1.20;;;6.70;99.90;;;;;;12531194;28;20110;-42
2022/02/24 00:22:31;;;;;;;3.70;1.17;;;6.80;99.90;;;;;;12528059;28;20071;-40
2022/02/24 00:28:34;;;;;;;9.23;1.88;;;6.90;99.90;;;;;;12530476;28;20084;-39
2022/02/24 00:34:35;;;;;;;5.90;1.20;;;6.90;99.90;;;;;;12530755;28;20059;-36
2022/02/24 00:40:37;;;;;;;5.78;1.27;;;7.00;99.90;;;;;;12529241;28;20044;-40
2022/02/24 00:46:40;;;;;;;7.82;1.77;;;7.00;99.90;;;;;;12527954;28;20048;-36
2022/02/24 00:52:42;;;;;;;10.55;1.48;;;6.90;99.90;;;;;;12528334;28;20044;-37
2022/02/24 00:58:44;;;;;;;11.48;1.45;;;7.00;99.90;;;;;;12526667;28;20481;-40
2022/02/24 01:04:45;;;;;;;8.73;1.70;;;7.00;99.90;;;;;;12529702;28;20497;-36
2022/02/24 01:10:48;;;;;;;5.65;1.40;;;7.10;99.90;;;;;;12529766;28;20049;-40
2022/02/24 01:16:52;;;;;;;;;;;7.10;99.90;;;;;;12530193;28;20057;-41
2022/02/24 01:22:55;;;;;;;8.75;1.48;;;7.00;99.90;;;;;;12531435;28;19959;-39
2022/02/24 01:28:57;;;;;;;6.93;1.50;;;7.00;99.90;;;;;;12540234;28;20057;-40
2022/02/24 01:35:01;;;;;;;5.82;1.40;;;7.00;99.90;;;;;;12539348;28;20065;-40
2022/02/24 01:41:03;;;;;;;10.63;1.70;;;7.00;99.90;;;;;;12538429;28;20048;-36
2022/02/24 01:47:04;;;;;;;7.95;1.65;;;6.90;99.90;;;;;;12530283;28;20044;-36
2022/02/24 01:53:07;;;;;;;9.45;1.77;;;6.90;99.90;;;;;;12538355;28;20052;-40
2022/02/24 01:59:09;;;;;;;6.13;1.70;;;6.90;99.90;;;;;;12536942;28;20056;-36
2022/02/24 02:05:11;;;;;;;7.55;2.03;;;6.90;99.90;;;;;;12535635;28;20056;-38
2022/02/24 02:11:13;;;;;;;5.55;1.58;;;6.90;99.90;;;;;;12539316;28;20148;-40
2022/02/24 02:17:14;;;;;;;8.93;1.85;;;6.90;99.90;;;;;;12539097;28;20101;-36
2022/02/24 02:23:16;;;;;;;10.02;2.35;;;6.90;99.90;;;;;;12536026;28;20049;-40
2022/02/24 02:29:18;;;;;;;10.52;2.17;;;6.90;99.90;;;;;;12531029;28;20057;-40
2022/02/24 02:35:20;;;;;;;8.57;1.70;;;6.90;99.90;;;;;;12535550;28;20527;-36
2022/02/24 02:41:27;;;;;;;4.38;1.40;;;7.00;99.90;;;;;;12527912;28;20127;-36
2022/02/24 02:47:29;;;;;;;7.75;1.50;;;6.90;99.90;;;;;;12538162;28;20057;-39
2022/02/24 02:53:31;;;;;;;9.35;2.30;;;7.00;99.90;;;;;;12532938;28;20139;-38
2022/02/24 02:59:33;;;;;;;9.75;2.38;;;7.00;99.90;;;;;;12532373;28;20057;-36
2022/02/24 03:05:36;;;;;;;5.95;1.55;;;7.00;99.90;;;;;;12532364;28;20084;-36
2022/02/24 03:11:38;;;;;;;7.55;1.90;;;7.00;99.90;;;;;;12535335;28;20055;-40
2022/02/24 03:17:41;;;;;;;6.07;1.90;;;7.00;99.90;;;;;;12533998;28;20056;-37
2022/02/24 03:23:43;;;;;;;7.75;1.90;;;7.00;99.90;;;;;;12531427;28;20738;-36
2022/02/24 03:29:45;;;;;;;7.80;1.80;;;7.00;99.90;;;;;;12486162;28;20072;-41
2022/02/24 03:35:47;;;;;;;4.45;1.40;;;7.00;99.90;;;;;;12485143;28;20444;-40
2022/02/24 03:41:51;;;;;;;6.50;1.70;;;7.00;99.90;;;;;;12482214;28;20686;-36
2022/02/24 03:47:53;;;;;;;8.45;2.20;;;7.00;99.90;;;;;;12482300;28;20493;-36
2022/02/24 03:53:55;;;;;;;8.85;2.15;;;7.00;99.90;;;;;;12481739;28;20132;-40
2022/02/24 03:59:57;;;;;;;12.60;2.40;;;7.10;99.90;;;;;;12480805;28;21089;-36
2022/02/24 04:06:00;;;;;;;7.70;2.40;;;7.10;99.90;;;;;;12462431;28;20057;-36
2022/02/24 04:12:04;;;;;;;7.80;2.20;;;7.00;99.90;;;;;;12478897;28;20131;-36
2022/02/24 04:18:06;;;;;;;7.03;2.10;;;7.10;99.90;;;;;;12478242;28;20110;-40
2022/02/24 04:24:08;;;;;;;9.20;2.20;;;6.90;99.90;;;;;;12479365;28;20292;-40
2022/02/24 04:30:10;;;;;;;7.93;2.25;;;7.00;99.90;;;;;;12482713;28;20065;-36
2022/02/24 04:36:13;;;;;;;9.50;2.85;;;7.00;99.90;;;;;;12481866;28;20049;-37
2022/02/24 04:42:14;;;;;;;6.18;1.88;;;7.00;99.90;;;;;;12478594;28;20044;-39
2022/02/24 04:48:18;;;;;;;8.73;2.03;;;7.00;99.90;;;;;;12482935;28;20093;-36
2022/02/24 04:54:20;;;;;;;9.75;2.60;;;6.90;99.90;;;;;;12479666;28;20421;-36
2022/02/24 05:00:23;;;;;;;9.52;2.20;;;7.00;99.90;;;;;;12489456;28;20049;-40
2022/02/24 05:06:25;;;;;;;8.30;2.47;;;7.00;99.90;;;;;;12490919;28;20107;-40
2022/02/24 05:12:27;;;;;;;12.35;2.40;;;7.00;99.90;;;;;;12488387;28;20055;-36
2022/02/24 05:18:29;;;;;;;8.43;2.50;;;7.10;99.90;;;;;;12488444;28;20060;-37
2022/02/24 05:24:31;;;;;;;8.45;2.47;;;7.00;99.90;;;;;;12485652;28;20084;-41
2022/02/24 05:30:34;;;;;;;12.65;2.60;;;7.00;99.90;;;;;;12488763;28;20056;-36
2022/02/24 05:36:38;;;;;;;8.32;2.20;;;6.90;99.90;;;;;;12491333;28;20049;-40
2022/02/24 05:42:41;;;;;;;9.50;2.40;;;6.90;99.90;;;;;;12490486;28;20115;-36
2022/02/24 05:48:43;;;;;;;9.82;2.55;;;6.90;99.90;;;;;;12488526;28;20103;-36
2022/02/24 05:54:47;;;;;;;7.30;2.42;;;6.90;99.90;;;;;;12489926;28;20045;-40
2022/02/24 06:00:50;;;;;;;8.80;2.17;;;6.90;99.90;;;;;;12490489;28;20071;-40
2022/02/24 06:06:52;;;;;;;6.63;2.15;;;6.80;99.90;;;;;;12484378;28;20052;-36
2022/02/24 06:12:57;;;;;;;8.40;2.20;;;6.80;99.90;;;;;;12485004;28;20076;-36
2022/02/24 06:18:59;;;;;;;9.02;2.17;;;6.80;99.90;;;;;;12484902;28;20065;-40
2022/02/24 06:25:01;;;;;;;9.63;2.55;;;6.80;99.90;;;;;;12482235;28;20098;-41
2022/02/24 06:31:03;;;;;;;9.75;2.25;;;6.80;99.90;;;;;;12482923;28;20052;-40
2022/02/24 06:37:06;;;;;;;8.57;2.17;;;6.80;99.90;;;;;;12484412;28;20507;-40
2022/02/24 06:43:08;;;;;;;8.18;2.13;;;6.90;99.90;;;;;;12489807;28;20845;-40
2022/02/24 06:49:10;;;;;;;10.00;3.15;;;6.90;99.90;;;;;;12485825;28;20095;-40
2022/02/24 06:55:12;;;;;;;6.90;1.92;;;6.80;99.90;;;;;;12483853;28;20212;-36
2022/02/24 07:01:14;;;;;;;11.50;2.28;;;6.90;99.90;;;;;;12482345;28;20049;-36
2022/02/24 07:07:16;;;;;;;9.82;2.00;;;6.90;99.90;;;;;;12485278;28;20055;-37
2022/02/24 07:13:18;;;;;;;7.90;2.10;;;6.90;99.90;;;;;;12484876;28;20054;-41
2022/02/24 07:19:20;;;;;;;11.65;2.33;;;6.90;99.90;;;;;;12466359;28;20057;-36
2022/02/24 07:25:22;;;;;;;10.07;2.35;;;7.00;99.90;;;;;;12483114;28;20057;-36
2022/02/24 07:31:24;;;;;;;12.10;2.00;;;7.00;99.90;;;;;;12488620;28;20053;-36
2022/02/24 07:37:26;;;;;;;7.15;2.17;;;7.00;99.90;;;;;;12480362;28;20063;-36
2022/02/24 07:43:30;;;;;;;7.85;2.17;;;7.00;99.90;;;;;;12482338;28;20080;-37
2022/02/24 07:49:32;;;;;;;9.93;2.42;;;7.00;99.90;;;;;;12484892;28;20049;-36
2022/02/24 07:55:34;;;;;;;14.88;2.88;;;7.10;99.90;;;;;;12479814;28;20041;-40
2022/02/24 08:01:36;;;;;;;10.00;2.60;;;7.20;99.90;;;;;;12477771;28;20040;-40
2022/02/24 08:07:38;;;;;;;8.15;2.83;;;7.20;99.90;;;;;;12481580;28;20049;-36
2022/02/24 08:13:42;;;;;;;8.90;2.00;;;7.20;99.90;;;;;;12482485;28;20053;-37
2022/02/24 08:19:44;;;;;;;7.60;2.20;;;7.20;99.90;;;;;;12480099;28;20494;-36
2022/02/24 08:25:46;;;;;;;12.52;2.08;;;7.20;99.90;;;;;;12480862;28;20144;-36
2022/02/24 08:31:48;;;;;;;8.98;2.08;;;7.30;99.90;;;;;;12479178;28;20068;-39
2022/02/24 08:37:51;;;;;;;8.10;1.80;;;7.50;99.90;;;;;;12480099;28;20060;-40
2022/02/24 08:43:53;;;;;;;5.43;1.42;;;7.60;99.90;;;;;;12482166;28;20049;-38
2022/02/24 08:49:55;;;;;;;5.63;1.58;;;7.60;99.90;;;;;;12477742;28;20046;-40
2022/02/24 08:56:17;;;;;;;5.93;2.45;;;7.70;99.90;;;;;;12474280;28;20102;-39
2022/02/24 09:02:19;;;;;;;5.50;1.60;;;7.90;99.90;;;;;;12475860;28;20107;-42
2022/02/24 09:08:21;;;;;;;10.32;2.00;;;8.30;99.90;;;;;;12481066;28;20042;-37
2022/02/24 09:14:23;;;;;;;9.80;2.17;;;8.30;99.90;;;;;;12476950;28;20099;-37
2022/02/24 09:20:26;;;;;;;9.80;2.20;;;8.30;99.90;;;;;;12478688;28;20050;-37
2022/02/24 09:26:31;;;;;;;9.05;2.38;;;8.30;99.90;;;;;;12476537;28;20059;-41
2022/02/24 09:32:34;;;;;;;6.57;1.80;;;8.40;99.90;;;;;;12477500;28;20414;-40
2022/02/24 09:38:37;;;;;;;6.97;2.00;;;8.60;99.90;;;;;;12477652;28;20171;-36
2022/02/24 09:44:39;;;;;;;9.00;2.30;;;8.60;99.90;;;;;;12480778;28;20045;-37
2022/02/24 09:50:41;;;;;;;6.57;1.77;;;8.70;99.90;;;;;;12486739;28;20091;-36
2022/02/24 09:56:43;;;;;;;9.77;1.75;;;8.60;99.90;;;;;;12466788;28;20076;-42
2022/02/24 10:02:45;;;;;;;9.07;1.88;;;8.90;99.90;;;;;;12489052;28;20131;-38
2022/02/24 10:08:48;;;;;;;5.93;1.65;;;8.90;99.90;;;;;;12488660;28;20048;-37
2022/02/24 10:14:50;;;;;;;6.15;1.48;;;9.00;99.90;;;;;;12468455;28;20064;-40
2022/02/24 10:21:00;;;;;;;5.70;1.50;;;9.20;99.90;;;;;;12485710;28;20090;-37
2022/02/24 10:27:41;;;;;;;4.88;1.30;;;9.40;99.90;;;;;;12486013;28;20060;-41
2022/02/24 10:33:45;;;;;;;6.55;1.48;;;9.70;99.90;;;;;;12396135;28;20559;-40
2022/02/24 10:39:48;;;;;;;9.25;1.65;;;9.50;99.90;;;;;;12483199;28;20476;-40
2022/02/24 10:46:06;;;;;;;5.43;1.42;;;9.70;99.90;;;;;;12489390;28;20616;-37
2022/02/24 10:52:15;;;;;;;7.93;1.33;;;9.70;99.90;;;;;;12487710;28;20151;-40
2022/02/24 10:58:17;;;;;;;6.18;1.42;;;9.90;99.90;;;;;;12484485;28;20059;-41
2022/02/24 11:04:19;;;;;;;5.38;1.30;;;10.30;99.90;;;;;;12482133;28;20599;-37
2022/02/24 11:10:23;;;;;;;6.10;1.30;;;10.40;99.90;;;;;;12481755;28;20056;-37
2022/02/24 11:16:28;;;;;;;5.68;1.20;;;10.50;99.90;;;;;;12484503;28;20132;-36
2022/02/24 11:22:31;;;;;;;3.33;1.25;;;10.60;99.90;;;;;;12484178;28;20132;-41
2022/02/24 11:28:40;;;;;;;5.70;1.10;;;10.30;99.90;;;;;;12486739;28;20577;-41
2022/02/24 11:35:10;;;;;;;5.00;1.15;;;10.20;99.90;;;;;;12487129;28;20583;-37
2022/02/24 11:41:16;;;;;;;3.83;0.88;;;10.20;99.90;;;;;;12475852;28;20049;-37
2022/02/24 11:47:18;;;;;;;4.72;1.15;;;10.30;99.90;;;;;;12485270;28;20053;-42
2022/02/24 11:53:27;;;;;;;6.13;1.30;;;10.00;99.90;;;;;;12462449;28;20057;-42
2022/02/24 11:59:30;;;;;;;4.18;1.10;;;9.80;99.90;;;;;;12481650;28;20057;-37
2022/02/24 12:05:32;;;;;;;8.85;1.67;;;9.70;99.90;;;;;;12482050;28;20041;-36
2022/02/24 12:11:39;;;;;;;4.15;1.45;;;9.50;99.90;;;;;;12479449;28;20049;-37
2022/02/24 12:17:49;;;;;;;5.55;1.35;;;9.50;99.90;;;;;;12480944;28;20626;-36
2022/02/24 12:23:52;;;;;;;3.97;1.25;;;9.60;99.90;;;;;;12482210;28;20057;-41
2022/02/24 12:30:00;;;;;;;6.65;1.52;;;9.50;99.90;;;;;;12484789;28;20072;-40
2022/02/24 12:36:03;;;;;;;4.88;1.63;;;9.60;99.90;;;;;;12487798;28;20096;-37
2022/02/24 12:42:07;;;;;;;2.85;1.05;;;9.90;99.90;;;;;;12480273;28;20156;-36
2022/02/24 12:48:10;;;;;;;4.95;1.20;;;10.00;99.90;;;;;;12480884;28;20195;-37
2022/02/24 12:54:14;;;;;;;5.15;1.30;;;9.80;99.90;;;;;;12484663;28;20080;-41
2022/02/24 13:00:22;;;;;;;7.88;1.92;;;9.90;99.90;;;;;;12484498;28;20055;-41
2022/02/24 13:06:24;;;;;;;4.70;1.35;;;9.60;99.90;;;;;;12482378;28;20057;-40
2022/02/24 13:12:26;;;;;;;5.10;1.50;;;9.40;99.90;;;;;;12481215;28;20128;-36
2022/02/24 13:18:29;;;;;;;10.15;1.92;;;9.30;99.90;;;;;;12483040;28;20057;-42
2022/02/24 13:24:34;;;;;;;7.25;1.83;;;9.40;99.90;;;;;;12493137;28;20151;-40
2022/02/24 13:30:38;;;;;;;7.70;1.80;;;9.50;99.90;;;;;;12490779;28;20563;-40
2022/02/24 13:36:40;;;;;;;6.75;1.75;;;9.50;99.90;;;;;;12492214;28;20103;-37
2022/02/24 13:43:04;;;;;;;6.53;1.80;;;9.30;99.90;;;;;;12487045;28;20057;-36
2022/02/24 13:49:11;;;;;;;5.47;1.67;;;9.30;99.90;;;;;;12490708;28;20106;-36
2022/02/24 13:55:15;;;;;;;5.97;2.15;;;9.40;99.90;;;;;;12478381;28;20448;-41
2022/02/24 14:01:23;;;;;;;3.75;1.70;;;9.30;99.90;;;;;;12490756;28;20975;-41
2022/02/24 14:07:30;;;;;;;5.82;1.75;;;9.20;99.90;;;;;;12485050;28;20049;-36
2022/02/24 14:13:33;;;;;;;4.63;1.50;;;9.20;99.90;;;;;;12491195;28;20057;-41
2022/02/24 14:19:35;;;;;;;5.60;1.70;;;9.20;99.90;;;;;;12489073;28;20049;-37
2022/02/24 14:25:39;;;;;;;8.50;1.80;;;9.20;99.90;;;;;;12483707;28;20305;-42
2022/02/24 14:31:41;;;;;;;5.53;1.75;;;9.30;99.90;;;;;;12486168;28;20055;-37
2022/02/24 14:37:43;;;;;;;4.85;1.50;;;9.30;99.90;;;;;;12482252;28;20326;-36
2022/02/24 14:43:46;;;;;;;7.57;2.00;;;9.30;99.90;;;;;;12486841;28;20539;-40
2022/02/24 14:49:48;;;;;;;3.42;1.20;;;9.30;99.90;;;;;;12478826;28;20050;-40
2022/02/24 14:55:51;;;;;;;5.10;1.35;;;9.40;99.90;;;;;;12486164;28;20489;-37
2022/02/24 15:01:53;;;;;;;4.30;1.73;;;9.40;99.90;;;;;;12486225;28;20531;-40
2022/02/24 15:07:55;;;;;;;5.22;1.17;;;9.50;99.90;;;;;;12486541;28;20079;-41
2022/02/24 15:13:57;;;;;;;3.63;1.20;;;9.60;99.90;;;;;;12481472;28;20057;-36
2022/02/24 15:20:02;;;;;;;4.03;1.38;;;9.50;99.90;;;;;;12481222;28;20045;-40
2022/02/24 15:26:04;;;;;;;4.90;1.30;;;9.40;99.90;;;;;;12483757;28;20053;-37
2022/02/24 15:32:06;;;;;;;5.30;1.10;;;9.60;99.90;;;;;;12481948;28;20136;-41
2022/02/24 15:38:08;;;;;;;6.63;1.25;;;9.60;99.90;;;;;;12481682;28;20056;-41
2022/02/24 15:44:10;;;;;;;6.32;0.98;;;9.60;99.90;;;;;;12480643;28;20049;-41
2022/02/24 15:50:14;;;;;;;4.05;1.20;;;9.60;99.90;;;;;;12480780;28;20049;-37
2022/02/24 15:56:16;;;;;;;4.97;1.20;;;9.50;99.90;;;;;;12480990;28;20176;-40
2022/02/24 16:02:20;;;;;;;3.03;1.10;;;9.50;99.90;;;;;;12483061;28;20135;-40
2022/02/24 16:08:22;;;;;;;3.50;1.00;;;9.50;99.90;;;;;;12484653;28;20143;-36
2022/02/24 16:14:24;;;;;;;3.58;0.82;;;9.40;99.90;;;;;;12480459;28;20053;-36
2022/02/24 16:20:26;;;;;;;9.85;1.10;;;9.50;99.90;;;;;;12483088;28;20044;-41
2022/02/24 16:26:28;;;;;;;2.47;0.82;;;9.30;99.90;;;;;;12482664;28;20523;-37
2022/02/24 16:32:30;;;;;;;1.15;0.50;;;9.20;99.90;;;;;;12482580;28;20093;-40
2022/02/24 16:38:32;;;;;;;2.17;0.63;;;8.10;99.90;;;;;;12491186;28;20144;-41
2022/02/24 16:44:39;;;;;;;0.30;0.20;;;5.30;99.90;;;;;;12490943;28;20053;-36
2022/02/24 16:50:42;;;;;;;0.47;0.20;;;4.40;99.90;;;;;;12489402;28;20045;-39
2022/02/24 16:56:44;;;;;;;1.05;0.30;;;4.10;99.90;;;;;;12477492;28;20060;-39
2022/02/24 17:02:59;;;;;;;1.17;0.40;;;4.00;99.90;;;;;;12493802;28;20052;-36
2022/02/24 17:09:01;;;;;;;0.98;0.43;;;3.90;99.90;;;;;;12491887;28;20072;-40
2022/02/24 17:15:06;;;;;;;0.98;0.40;;;4.00;99.90;;;;;;12492703;28;20152;-40
2022/02/24 17:21:10;;;;;;;;;;;4.00;99.90;;;;;;12494051;28;20048;-39
2022/02/24 17:27:13;;;;;;;1.52;0.40;;;4.10;99.90;;;;;;12488594;28;19928;-37
2022/02/24 17:33:16;;;;;;;1.87;0.33;;;4.10;99.90;;;;;;12498496;28;20564;-36
2022/02/24 17:39:18;;;;;;;1.13;0.30;;;4.00;99.90;;;;;;12495651;28;20501;-39
2022/02/24 17:45:21;;;;;;;1.50;0.30;;;3.90;99.90;;;;;;12495735;28;20615;-37
2022/02/24 17:51:27;;;;;;;0.82;0.52;;;4.00;99.90;;;;;;12495659;28;20076;-36
2022/02/24 17:57:29;;;;;;;3.05;0.50;;;3.90;99.90;;;;;;12489680;28;20596;-37
2022/02/24 18:03:31;;;;;;;1.80;0.82;;;3.90;99.90;;;;;;12490422;28;20128;-37
2022/02/24 18:09:33;;;;;;;1.10;0.50;;;4.00;99.90;;;;;;12492416;28;20084;-42
2022/02/24 18:15:35;;;;;;;1.15;0.65;;;4.10;99.90;;;;;;12491982;28;20498;-37
2022/02/24 18:21:38;;;;;;;1.38;0.60;;;4.10;99.90;;;;;;12495422;28;20056;-37
2022/02/24 18:27:41;;;;;;;3.55;1.30;;;4.10;99.90;;;;;;12491255;28;20118;-40
2022/02/24 18:33:45;;;;;;;1.45;0.82;;;4.20;99.90;;;;;;12490203;28;20147;-41
2022/02/24 18:39:52;;;;;;;1.23;0.90;;;4.10;99.90;;;;;;12489300;28;20071;-41
2022/02/24 18:45:54;;;;;;;1.50;0.75;;;4.20;99.90;;;;;;12489317;28;20418;-37
2022/02/24 18:51:56;;;;;;;1.35;0.70;;;4.20;99.90;;;;;;12488144;28;20056;-36
2022/02/24 18:57:59;;;;;;;2.88;1.10;;;4.10;99.90;;;;;;12494899;28;20056;-36
2022/02/24 19:04:01;;;;;;;2.83;1.10;;;4.00;99.90;;;;;;12486785;28;21018;-36
2022/02/24 19:10:07;;;;;;;2.00;1.15;;;4.00;99.90;;;;;;12488846;28;20374;-36
2022/02/24 19:16:09;;;;;;;1.73;1.17;;;3.90;99.90;;;;;;12489441;28;20136;-37
2022/02/24 19:22:11;;;;;;;3.67;1.17;;;3.90;99.90;;;;;;12488435;28;20037;-36
2022/02/24 19:28:13;;;;;;;2.05;1.35;;;4.00;99.90;;;;;;12489801;28;20912;-36
2022/02/24 19:34:15;;;;;;;5.00;1.48;;;3.90;99.90;;;;;;12490000;28;20532;-36
2022/02/24 19:40:17;;;;;;;2.97;1.60;;;3.90;99.90;;;;;;12484145;28;20071;-40
2022/02/24 19:46:20;;;;;;;2.72;1.40;;;3.90;99.90;;;;;;12487169;28;20127;-38
2022/02/24 19:52:22;;;;;;;3.42;1.35;;;4.00;99.90;;;;;;12484469;28;20128;-41
2022/02/24 19:58:24;;;;;;;3.08;1.45;;;4.00;99.90;;;;;;12485470;28;20160;-39
2022/02/24 20:04:26;;;;;;;4.07;1.83;;;4.00;99.90;;;;;;12469194;28;20442;-36
2022/02/24 20:10:28;;;;;;;6.00;1.80;;;3.90;99.90;;;;;;12486652;28;20059;-40
2022/02/24 20:16:30;;;;;;;9.02;2.03;;;3.90;99.90;;;;;;12490617;28;20683;-36
2022/02/24 20:22:32;;;;;;;9.75;1.60;;;3.80;99.90;;;;;;12482390;28;20081;-41
2022/02/24 20:28:34;;;;;;;7.05;2.00;;;3.90;99.90;;;;;;12465088;28;20134;-37
2022/02/24 20:34:36;;;;;;;8.95;2.42;;;3.90;99.90;;;;;;12487645;28;20168;-40
2022/02/24 20:40:38;;;;;;;5.90;2.10;;;3.80;99.90;;;;;;12483324;28;20049;-37
2022/02/24 20:46:40;;;;;;;7.95;2.55;;;3.80;99.90;;;;;;12485120;28;20063;-36
2022/02/24 20:52:46;;;;;;;5.93;2.38;;;3.80;99.90;;;;;;12484048;28;20057;-36
2022/02/24 20:58:47;;;;;;;6.85;2.20;;;3.90;99.90;;;;;;12481782;28;20053;-37
2022/02/24 21:04:51;;;;;;;9.23;2.83;;;3.80;99.90;;;;;;12478139;28;20620;-36
2022/02/24 21:10:54;;;;;;;8.50;2.80;;;3.90;99.90;;;;;;12482607;28;20187;-36
2022/02/24 21:16:55;;;;;;;10.43;3.42;;;3.90;99.90;;;;;;12481616;28;20055;-37
2022/02/24 21:22:57;;;;;;;5.05;3.00;;;3.90;99.90;;;;;;12477702;28;20050;-39
2022/02/24 21:28:59;;;;;;;7.72;3.92;;;3.90;99.90;;;;;;12460036;28;20077;-36
2022/02/24 21:35:02;;;;;;;5.63;3.53;;;3.80;99.90;;;;;;12478802;28;20056;-36
2022/02/24 21:41:03;;;;;;;6.15;3.17;;;3.80;99.90;;;;;;12487608;28;20365;-40
2022/02/24 21:47:06;;;;;;;7.47;3.28;;;3.70;99.90;;;;;;12490061;28;20106;-40
2022/02/24 21:53:08;;;;;;;6.25;3.20;;;3.50;99.90;;;;;;12492549;28;20083;-40
2022/02/24 21:59:09;;;;;;;6.75;3.53;;;3.50;99.90;;;;;;12494486;28;20568;-41
2022/02/24 22:05:12;;;;;;;5.13;2.80;;;3.60;99.90;;;;;;12486817;28;20045;-40
2022/02/24 22:11:13;;;;;;;8.77;2.50;;;3.50;99.90;;;;;;12492743;28;20049;-40
2022/02/24 22:17:15;;;;;;;5.53;2.33;;;3.40;99.90;;;;;;12489526;28;20136;-36
2022/02/24 22:23:18;;;;;;;6.95;2.38;;;3.30;99.90;;;;;;12490129;28;20055;-41
2022/02/24 22:29:20;;;;;;;7.93;2.20;;;3.30;99.90;;;;;;12490916;28;20059;-43
2022/02/24 22:35:22;;;;;;;4.97;1.80;;;3.10;99.90;;;;;;12490389;28;20053;-37
2022/02/24 22:41:24;;;;;;;3.30;1.55;;;3.20;99.90;;;;;;12485264;28;20057;-36
2022/02/24 22:47:27;;;;;;;4.35;1.58;;;3.00;99.90;;;;;;12487495;28;20063;-37
2022/02/24 22:53:28;;;;;;;6.32;1.80;;;3.00;99.90;;;;;;12481897;28;20056;-41
2022/02/24 22:59:31;;;;;;;3.38;1.40;;;3.00;99.90;;;;;;12487121;28;20052;-36
2022/02/24 23:05:32;;;;;;;4.13;1.73;;;2.90;99.90;;;;;;12483754;28;20100;-36
2022/02/24 23:11:35;;;;;;;5.90;1.67;;;2.90;99.90;;;;;;12481519;28;20049;-37
2022/02/24 23:17:37;;;;;;;7.68;1.75;;;2.90;99.90;;;;;;12485781;28;20565;-36
2022/02/24 23:23:38;;;;;;;6.32;1.50;;;2.90;99.90;;;;;;12484793;28;20061;-36
2022/02/24 23:29:40;;;;;;;3.10;0.95;;;2.80;99.90;;;;;;12484829;28;20075;-36
2022/02/24 23:35:42;;;;;;;5.50;2.15;;;2.70;99.90;;;;;;12482311;28;20495;-36
2022/02/24 23:41:44;;;;;;;3.85;1.27;;;2.70;99.90;;;;;;12481851;28;20092;-40
2022/02/24 23:47:46;;;;;;;5.32;1.00;;;2.70;99.90;;;;;;12485989;28;20053;-40
2022/02/24 23:53:48;;;;;;;6.28;1.20;;;2.70;99.90;;;;;;12480083;28;20053;-36
2022/02/24 23:59:50;;;;;;;5.78;1.45;;;2.70;99.90;;;;;;12478758;28;20105;-36
